createdAt,value
2023-02-07T00:00:47.508Z,-0.20
2023-02-07T00:03:14.200Z,-0.20
2023-02-07T00:05:41.157Z,-0.30
2023-02-07T00:08:08.800Z,-0.20
2023-02-07T00:10:35.743Z,-0.30
2023-02-07T00:13:03.744Z,-0.30
2023-02-07T00:15:31.957Z,-0.30
2023-02-07T00:17:58.559Z,-0.30
2023-02-07T00:20:25.237Z,-0.30
2023-02-07T00:22:52.181Z,-0.40
2023-02-07T00:25:18.814Z,-0.50
2023-02-07T00:27:45.483Z,-0.50
2023-02-07T00:30:12.634Z,-0.50
2023-02-07T00:32:39.219Z,-0.60
2023-02-07T00:35:06.319Z,-0.60
2023-02-07T00:37:32.871Z,-0.60
2023-02-07T00:39:59.434Z,-0.60
2023-02-07T00:42:26.005Z,-0.60
2023-02-07T00:44:52.608Z,-0.60
2023-02-07T00:47:19.154Z,-0.60
2023-02-07T00:49:45.706Z,-0.60
2023-02-07T00:52:12.456Z,-0.60
2023-02-07T00:54:39.007Z,-0.60
2023-02-07T00:57:05.558Z,-0.60
2023-02-07T00:59:32.375Z,-0.60
2023-02-07T01:01:58.985Z,-0.60
2023-02-07T01:04:25.640Z,-0.60
2023-02-07T01:06:52.268Z,-0.60
2023-02-07T01:09:18.933Z,-0.60
2023-02-07T01:11:45.530Z,-0.70
2023-02-07T01:14:12.108Z,-0.70
2023-02-07T01:16:39.133Z,-0.70
2023-02-07T01:19:08.360Z,-0.80
2023-02-07T01:21:35.661Z,-0.90
2023-02-07T01:24:02.259Z,-1.00
2023-02-07T01:26:28.987Z,-1.10
2023-02-07T01:28:56.601Z,-1.10
2023-02-07T01:31:23.921Z,-1.20
2023-02-07T01:33:59.064Z,-1.30
2023-02-07T01:36:28.012Z,-1.40
2023-02-07T01:38:55.876Z,-1.40
2023-02-07T01:41:24.814Z,-1.50
2023-02-07T01:43:57.224Z,-1.50
2023-02-07T01:46:24.591Z,-1.50
2023-02-07T01:48:53.141Z,-1.50
2023-02-07T01:51:19.781Z,-1.50
2023-02-07T01:53:47.066Z,-1.60
2023-02-07T01:56:30.461Z,-1.60
2023-02-07T01:58:58.154Z,-1.60
2023-02-07T02:01:25.888Z,-1.60
2023-02-07T02:03:55.609Z,-1.60
2023-02-07T02:06:24.318Z,-1.60
2023-02-07T02:08:55.677Z,-1.60
2023-02-07T02:11:34.466Z,-1.60
2023-02-07T02:14:18.352Z,-1.60
2023-02-07T02:16:53.711Z,-1.60
2023-02-07T02:19:49.170Z,-1.60
2023-02-07T02:22:56.632Z,-1.60
2023-02-07T02:25:52.573Z,-1.60
2023-02-07T02:28:42.175Z,-1.60
2023-02-07T02:31:30.377Z,-1.60
2023-02-07T02:34:21.355Z,-1.60
2023-02-07T02:37:21.886Z,-1.70
2023-02-07T02:40:10.148Z,-1.70
2023-02-07T02:42:54.019Z,-1.80
2023-02-07T02:45:45.221Z,-1.90
2023-02-07T02:48:12.846Z,-2.00
2023-02-07T02:50:44.673Z,-2.10
2023-02-07T02:53:12.233Z,-2.10
2023-02-07T02:56:06.116Z,-2.20
2023-02-07T02:58:55.759Z,-2.20
2023-02-07T03:01:32.812Z,-2.30
2023-02-07T03:04:21.201Z,-2.30
2023-02-07T03:07:11.888Z,-2.40
2023-02-07T03:09:46.622Z,-2.40
2023-02-07T03:12:27.562Z,-2.40
2023-02-07T03:15:01.595Z,-2.50
2023-02-07T03:17:53.833Z,-2.40
2023-02-07T03:20:30.228Z,-2.30
2023-02-07T03:23:02.809Z,-2.30
2023-02-07T03:25:30.980Z,-2.20
2023-02-07T03:27:57.698Z,-2.20
2023-02-07T03:30:29.912Z,-2.20
2023-02-07T03:33:00.602Z,-2.20
2023-02-07T03:35:38.388Z,-2.30
2023-02-07T03:38:06.446Z,-2.30
2023-02-07T03:40:40.411Z,-2.30
2023-02-07T03:43:26.856Z,-2.40
2023-02-07T03:45:53.574Z,-2.40
2023-02-07T03:48:20.427Z,-2.50
2023-02-07T03:50:48.389Z,-2.60
2023-02-07T03:53:15.193Z,-2.60
2023-02-07T03:55:41.813Z,-2.60
2023-02-07T03:58:09.535Z,-2.70
2023-02-07T04:00:36.206Z,-2.80
2023-02-07T04:03:03.834Z,-2.80
2023-02-07T04:05:30.631Z,-2.80
2023-02-07T04:07:57.292Z,-2.80
2023-02-07T04:10:23.862Z,-2.80
2023-02-07T04:12:50.453Z,-2.80
2023-02-07T04:15:17.503Z,-2.80
2023-02-07T04:17:44.098Z,-2.80
2023-02-07T04:20:11.693Z,-2.80
2023-02-07T04:22:38.292Z,-2.80
2023-02-07T04:25:05.270Z,-2.80
2023-02-07T04:27:31.875Z,-2.70
2023-02-07T04:29:58.483Z,-2.70
2023-02-07T04:32:25.130Z,-2.70
2023-02-07T04:34:51.726Z,-2.80
2023-02-07T04:37:18.419Z,-2.80
2023-02-07T04:39:45.797Z,-2.80
2023-02-07T04:42:13.200Z,-2.90
2023-02-07T04:44:39.777Z,-2.80
2023-02-07T04:47:06.399Z,-2.90
2023-02-07T04:49:34.476Z,-2.90
2023-02-07T04:52:01.494Z,-2.90
2023-02-07T04:54:28.111Z,-2.90
2023-02-07T04:56:54.683Z,-2.90
2023-02-07T04:59:21.277Z,-3.00
2023-02-07T05:01:47.904Z,-2.90
2023-02-07T05:04:14.709Z,-3.00
2023-02-07T05:06:41.425Z,-3.00
2023-02-07T05:09:08.023Z,-3.00
2023-02-07T05:11:34.683Z,-3.00
2023-02-07T05:14:01.313Z,-3.10
2023-02-07T05:16:27.985Z,-3.10
2023-02-07T05:18:54.684Z,-3.20
2023-02-07T05:21:21.304Z,-3.20
2023-02-07T05:23:48.003Z,-3.20
2023-02-07T05:26:14.874Z,-3.30
2023-02-07T05:28:41.443Z,-3.30
2023-02-07T05:31:08.142Z,-3.30
2023-02-07T05:33:34.809Z,-3.30
2023-02-07T05:36:05.031Z,-3.30
2023-02-07T05:38:31.665Z,-3.30
2023-02-07T05:40:58.292Z,-3.30
2023-02-07T05:43:24.991Z,-3.30
2023-02-07T05:45:51.627Z,-3.40
2023-02-07T05:48:18.610Z,-3.40
2023-02-07T05:50:45.203Z,-3.40
2023-02-07T05:53:12.858Z,-3.40
2023-02-07T05:55:40.163Z,-3.40
2023-02-07T05:58:07.151Z,-3.50
2023-02-07T06:00:33.757Z,-3.50
2023-02-07T06:03:00.429Z,-3.40
2023-02-07T06:05:31.449Z,-3.50
2023-02-07T06:07:58.482Z,-3.40
2023-02-07T06:10:25.079Z,-3.40
2023-02-07T06:12:51.768Z,-3.40
2023-02-07T06:15:18.487Z,-3.50
2023-02-07T06:17:45.093Z,-3.50
2023-02-07T06:20:12.224Z,-3.40
2023-02-07T06:22:38.928Z,-3.50
2023-02-07T06:25:05.972Z,-3.50
2023-02-07T06:27:32.569Z,-3.50
2023-02-07T06:29:59.160Z,-3.60
2023-02-07T06:32:25.837Z,-3.60
2023-02-07T06:34:52.475Z,-3.50
2023-02-07T06:37:19.044Z,-3.50
2023-02-07T06:39:45.661Z,-3.50
2023-02-07T06:42:12.259Z,-3.50
2023-02-07T06:44:38.857Z,-3.50
2023-02-07T06:47:05.507Z,-3.50
2023-02-07T06:49:32.244Z,-3.50
2023-02-07T06:51:58.917Z,-3.50
2023-02-07T06:54:25.690Z,-3.50
2023-02-07T06:56:52.353Z,-3.50
2023-02-07T06:59:19.197Z,-3.60
2023-02-07T07:01:47.743Z,-3.50
2023-02-07T07:04:15.948Z,-3.50
2023-02-07T07:06:42.771Z,-3.50
2023-02-07T07:09:09.397Z,-3.50
2023-02-07T07:11:38.917Z,-3.40
2023-02-07T07:14:05.501Z,-3.40
2023-02-07T07:16:32.074Z,-3.40
2023-02-07T07:18:58.654Z,-3.30
2023-02-07T07:21:27.491Z,-3.30
2023-02-07T07:23:55.009Z,-3.20
2023-02-07T07:26:21.849Z,-3.20
2023-02-07T07:28:49.729Z,-3.20
2023-02-07T07:31:16.736Z,-3.10
2023-02-07T07:33:43.370Z,-3.00
2023-02-07T07:36:10.284Z,-2.90
2023-02-07T07:41:04.550Z,-2.80
2023-02-07T07:43:31.138Z,-2.80
2023-02-07T07:46:01.650Z,-2.70
2023-02-07T07:48:28.684Z,-2.70
2023-02-07T07:50:55.584Z,-2.60
2023-02-07T07:53:22.339Z,-2.50
2023-02-07T07:55:54.106Z,-2.40
2023-02-07T07:58:21.938Z,-2.30
2023-02-07T08:00:49.098Z,-2.30
2023-02-07T08:03:17.092Z,-2.20
2023-02-07T08:05:44.499Z,-2.20
2023-02-07T08:08:11.754Z,-2.10
2023-02-07T08:10:41.168Z,-2.10
2023-02-07T08:13:08.414Z,-2.00
2023-02-07T08:15:35.174Z,-1.90
2023-02-07T08:18:01.804Z,-1.80
2023-02-07T08:20:28.451Z,-1.70
2023-02-07T08:22:55.066Z,-1.70
2023-02-07T08:25:21.643Z,-1.60
2023-02-07T08:27:48.250Z,-1.50
2023-02-07T08:30:15.256Z,-1.40
2023-02-07T08:32:42.324Z,-1.20
2023-02-07T08:35:09.733Z,-1.00
2023-02-07T08:37:36.555Z,-0.20
2023-02-07T08:40:05.167Z,1.90
2023-02-07T08:42:31.947Z,3.90
2023-02-07T08:44:58.598Z,5.20
2023-02-07T08:47:25.282Z,6.30
2023-02-07T08:49:51.935Z,7.90
2023-02-07T08:52:18.516Z,9.30
2023-02-07T08:54:45.072Z,11.40
2023-02-07T08:57:11.670Z,13.20
2023-02-07T08:59:38.245Z,14.30
2023-02-07T09:02:04.841Z,15.40
2023-02-07T09:04:31.530Z,15.80
2023-02-07T09:06:58.165Z,14.70
2023-02-07T09:09:25.126Z,11.80
2023-02-07T09:11:51.824Z,9.70
2023-02-07T09:14:18.642Z,7.70
2023-02-07T09:16:45.818Z,6.00
2023-02-07T09:19:12.392Z,4.60
2023-02-07T09:21:39.017Z,3.60
2023-02-07T09:24:06.074Z,2.90
2023-02-07T09:26:34.591Z,2.80
2023-02-07T09:29:01.228Z,3.80
2023-02-07T09:31:28.228Z,5.70
2023-02-07T09:33:54.977Z,7.80
2023-02-07T09:36:27.257Z,9.80
2023-02-07T09:38:54.751Z,11.40
2023-02-07T09:41:42.051Z,12.00
2023-02-07T09:44:16.331Z,12.80
2023-02-07T09:47:03.186Z,13.90
2023-02-07T09:49:32.491Z,15.40
2023-02-07T09:52:00.591Z,15.40
2023-02-07T09:54:33.248Z,14.30
2023-02-07T09:57:06.794Z,13.90
2023-02-07T10:00:23.030Z,14.00
2023-02-07T10:02:58.759Z,13.70
2023-02-07T10:05:43.731Z,13.10
2023-02-07T10:08:15.559Z,13.40
2023-02-07T10:11:01.835Z,13.90
2023-02-07T10:14:04.975Z,14.40
2023-02-07T10:17:16.571Z,15.00
2023-02-07T10:20:18.597Z,16.90
2023-02-07T10:23:04.568Z,17.60
2023-02-07T10:25:55.350Z,17.90
2023-02-07T10:28:48.734Z,17.50
2023-02-07T10:31:18.508Z,19.20
2023-02-07T10:33:56.283Z,19.70
2023-02-07T10:36:25.382Z,20.70
2023-02-07T10:39:14.436Z,20.60
2023-02-07T10:41:44.145Z,18.90
2023-02-07T10:44:20.039Z,17.00
2023-02-07T10:46:59.951Z,16.90
2023-02-07T10:49:29.828Z,16.70
2023-02-07T10:52:20.995Z,17.60
2023-02-07T10:54:54.140Z,19.90
2023-02-07T10:57:21.949Z,21.30
2023-02-07T10:59:50.400Z,19.70
2023-02-07T11:02:28.932Z,19.00
2023-02-07T11:04:57.368Z,18.80
2023-02-07T11:07:25.040Z,18.20
2023-02-07T11:09:52.366Z,18.80
2023-02-07T11:12:22.611Z,19.60
2023-02-07T11:15:05.117Z,20.30
2023-02-07T11:17:34.479Z,20.80
2023-02-07T11:20:06.548Z,20.40
2023-02-07T11:22:33.427Z,20.10
2023-02-07T11:25:04.990Z,20.80
2023-02-07T11:27:39.538Z,21.70
2023-02-07T11:30:20.301Z,22.30
2023-02-07T11:32:59.589Z,22.50
2023-02-07T11:35:26.558Z,21.30
2023-02-07T11:38:03.807Z,18.90
2023-02-07T11:40:38.238Z,16.50
2023-02-07T11:43:16.610Z,14.50
2023-02-07T11:45:48.152Z,13.20
2023-02-07T11:48:31.988Z,12.50
2023-02-07T11:51:01.086Z,12.00
2023-02-07T11:53:36.496Z,11.40
2023-02-07T11:56:04.442Z,10.60
2023-02-07T11:58:41.328Z,10.40
2023-02-07T12:01:08.596Z,10.40
2023-02-07T12:03:45.372Z,10.60
2023-02-07T12:06:18.307Z,10.90
2023-02-07T12:08:45.808Z,11.30
2023-02-07T12:11:20.647Z,11.50
2023-02-07T12:14:03.280Z,11.80
2023-02-07T12:16:36.730Z,11.70
2023-02-07T12:19:11.973Z,12.40
2023-02-07T12:21:55.925Z,13.70
2023-02-07T12:24:32.872Z,15.80
2023-02-07T12:27:16.891Z,18.00
2023-02-07T12:29:52.477Z,19.40
2023-02-07T12:32:46.904Z,21.00
2023-02-07T12:35:28.284Z,21.80
2023-02-07T12:38:29.103Z,20.50
2023-02-07T12:41:02.651Z,18.70
2023-02-07T12:43:33.851Z,19.20
2023-02-07T12:46:00.514Z,20.00
2023-02-07T12:48:33.258Z,18.70
2023-02-07T12:51:37.357Z,18.00
2023-02-07T12:54:52.006Z,17.20
2023-02-07T12:57:28.207Z,16.20
2023-02-07T13:00:36.992Z,16.70
2023-02-07T13:03:41.339Z,16.70
2023-02-07T13:06:43.679Z,16.70
2023-02-07T13:09:23.611Z,16.70
2023-02-07T13:12:33.120Z,17.00
2023-02-07T13:15:21.618Z,16.70
2023-02-07T13:18:00.155Z,17.00
2023-02-07T13:20:47.935Z,17.60
2023-02-07T13:23:25.419Z,17.20
2023-02-07T13:26:02.456Z,17.30
2023-02-07T13:28:50.743Z,17.50
2023-02-07T13:31:20.904Z,17.50
2023-02-07T13:33:52.197Z,18.00
2023-02-07T13:36:44.415Z,18.10
2023-02-07T13:39:52.595Z,17.80
2023-02-07T13:42:42.451Z,17.20
2023-02-07T13:45:31.328Z,16.10
2023-02-07T13:48:11.765Z,15.30
2023-02-07T13:51:10.312Z,14.90
2023-02-07T13:54:01.393Z,14.60
2023-02-07T13:56:51.703Z,14.70
2023-02-07T13:59:38.297Z,15.20
2023-02-07T14:02:14.348Z,15.90
2023-02-07T14:04:52.636Z,15.90
2023-02-07T14:07:25.944Z,15.80
2023-02-07T14:09:53.019Z,15.80
2023-02-07T14:12:41.763Z,15.70
2023-02-07T14:15:39.156Z,15.20
2023-02-07T14:18:26.886Z,14.20
2023-02-07T14:21:05.300Z,13.30
2023-02-07T14:23:59.719Z,12.60
2023-02-07T14:26:42.702Z,11.80
2023-02-07T14:29:25.214Z,11.10
2023-02-07T14:32:16.834Z,11.00
2023-02-07T14:35:04.332Z,10.90
2023-02-07T14:37:53.527Z,10.50
2023-02-07T14:40:31.256Z,10.00
2023-02-07T14:43:05.102Z,9.30
2023-02-07T14:45:35.322Z,8.70
2023-02-07T14:48:02.573Z,8.50
2023-02-07T14:50:33.627Z,8.30
2023-02-07T14:53:04.396Z,7.80
2023-02-07T14:55:48.713Z,7.40
2023-02-07T14:58:25.948Z,7.10
2023-02-07T15:00:58.464Z,6.70
2023-02-07T15:03:30.073Z,6.50
2023-02-07T15:06:01.290Z,6.30
2023-02-07T15:08:30.515Z,6.20
2023-02-07T15:11:02.294Z,6.10
2023-02-07T15:13:30.816Z,5.80
2023-02-07T15:16:07.297Z,5.60
2023-02-07T15:18:40.085Z,5.40
2023-02-07T15:21:10.596Z,5.30
2023-02-07T15:23:37.216Z,5.20
2023-02-07T15:26:08.690Z,5.20
2023-02-07T15:28:35.668Z,5.20
2023-02-07T15:31:09.865Z,5.10
2023-02-07T15:34:15.641Z,4.90
2023-02-07T15:36:45.793Z,4.70
2023-02-07T15:39:17.052Z,4.50
2023-02-07T15:41:49.438Z,4.30
2023-02-07T15:44:22.755Z,4.10
2023-02-07T15:46:52.993Z,4.00
2023-02-07T15:49:32.775Z,3.90
2023-02-07T15:52:33.946Z,3.80
2023-02-07T15:55:04.834Z,3.60
2023-02-07T15:57:41.386Z,3.50
2023-02-07T16:00:38.421Z,3.30
2023-02-07T16:03:08.641Z,3.20
2023-02-07T16:05:37.856Z,3.10
2023-02-07T16:08:31.660Z,3.00
2023-02-07T16:11:22.517Z,2.90
2023-02-07T16:14:21.272Z,2.80
2023-02-07T16:16:54.583Z,2.70
2023-02-07T16:19:27.248Z,2.60
2023-02-07T16:22:02.998Z,2.40
2023-02-07T16:24:32.397Z,2.30
2023-02-07T16:27:00.552Z,2.10
2023-02-07T16:29:27.922Z,2.10
2023-02-07T16:31:55.371Z,2.00
2023-02-07T16:34:23.084Z,2.00
2023-02-07T16:36:55.358Z,2.10
2023-02-07T16:39:23.330Z,2.10
2023-02-07T16:41:54.646Z,2.10
2023-02-07T16:44:26.295Z,2.00
2023-02-07T16:46:53.131Z,2.00
2023-02-07T16:49:25.603Z,1.90
2023-02-07T16:51:52.628Z,2.00
2023-02-07T16:54:19.792Z,2.00
2023-02-07T16:56:49.250Z,2.00
2023-02-07T16:59:18.283Z,1.90
2023-02-07T17:01:45.526Z,1.80
2023-02-07T17:04:12.568Z,1.70
2023-02-07T17:06:40.807Z,1.70
2023-02-07T17:09:19.498Z,1.70
2023-02-07T17:11:46.785Z,1.60
2023-02-07T17:14:13.749Z,1.60
2023-02-07T17:16:40.893Z,1.50
2023-02-07T17:19:18.129Z,1.50
2023-02-07T17:21:46.029Z,1.40
2023-02-07T17:24:12.928Z,1.40
2023-02-07T17:26:43.685Z,1.40
2023-02-07T17:29:12.968Z,1.50
2023-02-07T17:31:40.356Z,1.40
2023-02-07T17:34:07.176Z,1.30
2023-02-07T17:36:34.286Z,1.30
2023-02-07T17:39:01.516Z,1.30
2023-02-07T17:41:28.439Z,1.30
2023-02-07T17:43:54.976Z,1.20
2023-02-07T17:46:26.374Z,1.20
2023-02-07T17:48:54.119Z,1.20
2023-02-07T17:51:23.094Z,1.10
2023-02-07T17:53:50.706Z,1.10
2023-02-07T17:56:35.926Z,1.10
2023-02-07T17:59:04.852Z,1.10
2023-02-07T18:01:32.713Z,1.10
2023-02-07T18:03:59.920Z,1.00
2023-02-07T18:06:28.556Z,1.00
2023-02-07T18:08:58.428Z,1.00
2023-02-07T18:11:26.705Z,1.00
2023-02-07T18:13:53.540Z,1.00
2023-02-07T18:16:23.648Z,1.00
2023-02-07T18:18:52.071Z,0.90
2023-02-07T18:21:19.507Z,0.80
2023-02-07T18:23:46.537Z,0.80
2023-02-07T18:26:15.085Z,0.80
2023-02-07T18:28:42.786Z,0.80
2023-02-07T18:31:15.658Z,0.80
2023-02-07T18:33:42.395Z,0.70
2023-02-07T18:36:09.625Z,0.60
2023-02-07T18:38:36.563Z,0.60
2023-02-07T18:41:21.914Z,0.60
2023-02-07T18:43:50.001Z,0.60
2023-02-07T18:46:19.280Z,0.60
2023-02-07T18:48:46.628Z,0.60
2023-02-07T18:51:15.742Z,0.50
2023-02-07T18:53:43.285Z,0.50
2023-02-07T18:56:16.559Z,0.40
2023-02-07T18:58:46.590Z,0.40
2023-02-07T19:01:20.052Z,0.40
2023-02-07T19:03:51.181Z,0.30
2023-02-07T19:06:17.829Z,0.30
2023-02-07T19:08:44.421Z,0.20
2023-02-07T19:11:10.984Z,0.10
2023-02-07T19:13:37.612Z,0.10
2023-02-07T19:16:13.684Z,0.20
2023-02-07T19:18:40.981Z,0.20
2023-02-07T19:21:10.683Z,0.20
2023-02-07T19:23:38.128Z,0.30
2023-02-07T19:26:05.250Z,0.20
2023-02-07T19:28:33.173Z,0.20
2023-02-07T19:31:03.890Z,0.20
2023-02-07T19:33:30.703Z,0.30
2023-02-07T19:35:57.915Z,0.20
2023-02-07T19:38:24.495Z,0.10
2023-02-07T19:40:57.741Z,0.10
2023-02-07T19:43:24.711Z,0.10
2023-02-07T19:45:51.649Z,0.10
2023-02-07T19:48:18.211Z,0.00
2023-02-07T19:50:45.327Z,0.00
2023-02-07T19:53:13.607Z,0.00
2023-02-07T19:55:41.266Z,0.00
2023-02-07T19:58:07.891Z,0.00
2023-02-07T20:00:34.701Z,0.00
2023-02-07T20:03:01.260Z,0.00
2023-02-07T20:05:28.188Z,-0.10
2023-02-07T20:07:54.931Z,-0.10
2023-02-07T20:10:21.579Z,-0.20
2023-02-07T20:12:48.914Z,-0.30
2023-02-07T20:15:15.618Z,-0.40
2023-02-07T20:17:42.751Z,-0.60
2023-02-07T20:20:09.795Z,-0.70
2023-02-07T20:22:36.488Z,-0.80
2023-02-07T20:25:04.591Z,-0.90
2023-02-07T20:27:31.246Z,-0.90
2023-02-07T20:29:57.899Z,-0.90
2023-02-07T20:32:24.547Z,-0.90
2023-02-07T20:34:51.168Z,-0.90
2023-02-07T20:37:17.827Z,-0.90
2023-02-07T20:39:44.433Z,-0.90
2023-02-07T20:42:11.075Z,-0.90
2023-02-07T20:44:37.773Z,-0.80
2023-02-07T20:47:04.805Z,-0.90
2023-02-07T20:49:31.863Z,-1.00
2023-02-07T20:51:59.684Z,-1.10
2023-02-07T20:54:28.890Z,-1.20
2023-02-07T20:56:56.836Z,-1.30
2023-02-07T20:59:26.425Z,-1.30
2023-02-07T21:01:54.059Z,-1.40
2023-02-07T21:04:21.424Z,-1.40
2023-02-07T21:06:48.363Z,-1.40
2023-02-07T21:09:16.196Z,-1.50
2023-02-07T21:11:45.573Z,-1.50
2023-02-07T21:14:17.999Z,-1.60
2023-02-07T21:16:44.696Z,-1.60
2023-02-07T21:19:11.978Z,-1.70
2023-02-07T21:21:39.494Z,-1.80
2023-02-07T21:24:06.544Z,-1.80
2023-02-07T21:26:33.373Z,-1.80
2023-02-07T21:29:02.865Z,-1.80
2023-02-07T21:31:30.696Z,-1.80
2023-02-07T21:33:57.948Z,-1.80
2023-02-07T21:36:27.328Z,-1.80
2023-02-07T21:38:55.585Z,-1.90
2023-02-07T21:41:25.375Z,-1.90
2023-02-07T21:43:54.244Z,-1.90
2023-02-07T21:46:26.647Z,-1.90
2023-02-07T21:49:01.517Z,-2.00
2023-02-07T21:51:29.907Z,-2.00
2023-02-07T21:53:57.281Z,-2.00
2023-02-07T21:56:29.882Z,-2.10
2023-02-07T21:58:59.745Z,-2.10
2023-02-07T22:01:28.350Z,-2.10
2023-02-07T22:03:58.024Z,-2.10
2023-02-07T22:06:25.315Z,-2.10
2023-02-07T22:08:57.380Z,-2.10
2023-02-07T22:11:25.886Z,-2.10
2023-02-07T22:13:53.157Z,-2.10
2023-02-07T22:16:21.978Z,-2.10
2023-02-07T22:18:51.097Z,-2.10
2023-02-07T22:21:23.223Z,-2.10
2023-02-07T22:23:50.229Z,-2.20
2023-02-07T22:26:20.053Z,-2.20
2023-02-07T22:28:47.348Z,-2.30
2023-02-07T22:31:17.141Z,-2.20
2023-02-07T22:33:43.816Z,-2.30
2023-02-07T22:36:19.383Z,-2.30
2023-02-07T22:38:47.025Z,-2.30
2023-02-07T22:41:13.802Z,-2.20
2023-02-07T22:43:40.658Z,-2.20
2023-02-07T22:46:10.792Z,-2.30
2023-02-07T22:48:37.680Z,-2.30
2023-02-07T22:51:35.177Z,-2.30
2023-02-07T22:54:08.162Z,-2.30
2023-02-07T22:56:36.736Z,-2.30
2023-02-07T22:59:04.572Z,-2.40
2023-02-07T23:01:35.381Z,-2.30
2023-02-07T23:04:03.991Z,-2.40
2023-02-07T23:06:32.412Z,-2.50
2023-02-07T23:08:59.338Z,-2.50
2023-02-07T23:11:26.023Z,-2.50
2023-02-07T23:13:53.407Z,-2.50
2023-02-07T23:16:22.826Z,-2.50
2023-02-07T23:18:50.776Z,-2.50
2023-02-07T23:21:20.955Z,-2.50
2023-02-07T23:23:47.578Z,-2.40
2023-02-07T23:26:18.705Z,-2.40
2023-02-07T23:28:45.612Z,-2.40
2023-02-07T23:31:15.789Z,-2.40
2023-02-07T23:33:42.657Z,-2.40
2023-02-07T23:36:09.588Z,-2.40
2023-02-07T23:38:36.800Z,-2.40
2023-02-07T23:41:04.535Z,-2.40
2023-02-07T23:43:31.152Z,-2.40
2023-02-07T23:45:57.763Z,-2.40
2023-02-07T23:48:24.466Z,-2.50
2023-02-07T23:50:56.008Z,-2.50
2023-02-07T23:53:23.557Z,-2.50
2023-02-07T23:55:50.701Z,-2.50
2023-02-07T23:58:17.460Z,-2.60
